Aérodrome :
LOGIN :

S'inscrire | Disclaimer

   EN    FR    IT 

 










Légende :    VFR   VFR Marginal   IFR   IFR Intensif   IFR Très Intensif
Visi : 
Plafond : 
>= 8 km
>= 3000ft
5 à 8 km
1000 à 3000 ft
1500m à 5 km
500 à 1000 ft
800 à 1500m
200 à 500 ft
< 800m
< 200 ft
Symboles :   Orages  Brouillard  Fortes neiges  Fortes précipitations  Vent > 20 kt
SIGMETs :   Divers  Orages  Givrage  Turbulence  Onde Orograph.  Cendres Volcan.







- Altitude de l'aérodrome : -15 ft
- Code IATA : RTM


EHRD - Rotterdam Zestienhoven

DERNIER METAR :
  • 181325Z AUTO 22020G31KT 180V250 9999 SCT036 23/15 Q1011 NOSIG

METARs EXPIRÉS :
  • 181255Z AUTO 22017KT 180V260 9999 SCT035 23/15 Q1011 NOSIG
  • 181225Z AUTO 22017KT 190V260 9999 SCT033 23/15 Q1011 NOSIG
  • 181155Z AUTO 21017KT 170V240 9999 OVC030 23/15 Q1011 NOSIG
  • 181125Z AUTO 23016KT 200V260 9999 BKN028 22/15 Q1011 NOSIG
  • 181055Z AUTO 22016KT 180V260 9999 BKN026 BKN030 BKN035 21/15 Q1011 NOSIG

TAF TAF EHRD
Valide du 18 à 12h jusqu'au 19 à 18h UTC


181120Z 1812/1918 23017G27KT 9999 SCT025
BECMG 1816/1819 22012KT
BECMG 1823/1902 19007KT
BECMG 1908/1911 22016KT
Pas de NOTAMs connus pour ce terrain.



MET'MAP, la Météo Aéronautique d'un coup d'oeil ! - Copyright ORBIFLY Décembre 2007 - Disclaimer

ORBIFLY MET'MAP TEAM :

Programmation & Développement : Alexandra Zaïnal
Conception & Développement : Baudouin d'Aumeries
Co-Programmation & Développement : Marc-Olivier Méhu
Soutien technique & logistique : Manuel Goepfert

Contact : metmap@orbifly.com




SOURCES & CREDITS :

   NOAA